createdAt,value
2019-05-02T00:01:07.219Z,94498.73
2019-05-02T00:03:41.093Z,94497.15
2019-05-02T00:06:09.248Z,94499.47
2019-05-02T00:08:38.315Z,94499.39
2019-05-02T00:11:08.851Z,94502.06
2019-05-02T00:13:37.561Z,94497.24
2019-05-02T00:16:09.082Z,94494.56
2019-05-02T00:18:39.017Z,94493.19
2019-05-02T00:21:09.357Z,94493.49
2019-05-02T00:23:37.978Z,94495.58
2019-05-02T00:26:06.880Z,94489.37
2019-05-02T00:28:38.099Z,94492.53
2019-05-02T00:31:11.466Z,94495.02
2019-05-02T00:33:38.371Z,94496.45
2019-05-02T00:36:07.411Z,94492.05
2019-05-02T00:38:38.570Z,94494.47
2019-05-02T00:41:08.883Z,94489.63
2019-05-02T00:43:37.824Z,94493.81
2019-05-02T00:46:07.613Z,94487.11
2019-05-02T00:48:44.815Z,94491.16
2019-05-02T00:51:13.764Z,94489.25
2019-05-02T00:53:44.412Z,94497.71
2019-05-02T00:56:13.303Z,94498.13
2019-05-02T00:58:42.143Z,94501.97
2019-05-02T01:01:12.588Z,94503.34
2019-05-02T01:03:47.140Z,94500.61
2019-05-02T01:06:14.473Z,94497.89
2019-05-02T01:08:43.521Z,94504.28
2019-05-02T01:11:12.699Z,94511.44
2019-05-02T01:13:41.712Z,94513.20
2019-05-02T01:16:15.256Z,94509.41
2019-05-02T01:18:42.578Z,94504.86
2019-05-02T01:21:11.712Z,94510.85
2019-05-02T01:23:41.303Z,94511.25
2019-05-02T01:26:11.106Z,94512.09
2019-05-02T01:28:49.295Z,94511.81
2019-05-02T01:31:32.524Z,94507.84
2019-05-02T01:34:18.084Z,94512.23
2019-05-02T01:36:47.252Z,94512.67
2019-05-02T01:39:15.956Z,94507.98
2019-05-02T01:41:45.418Z,94508.80
2019-05-02T01:44:14.057Z,94513.03
2019-05-02T01:46:43.370Z,94507.41
2019-05-02T01:49:12.284Z,94514.78
2019-05-02T01:51:41.850Z,94508.20
2019-05-02T01:54:11.740Z,94512.61
2019-05-02T01:56:40.382Z,94512.89
2019-05-02T01:59:10.065Z,94510.02
2019-05-02T02:01:38.739Z,94506.17
2019-05-02T02:04:07.662Z,94508.66
2019-05-02T02:06:38.895Z,94506.91
2019-05-02T02:09:09.706Z,94507.44
2019-05-02T02:11:40.233Z,94509.64
2019-05-02T02:14:12.843Z,94506.70
2019-05-02T02:16:42.002Z,94504.39
2019-05-02T02:19:15.240Z,94509.39
2019-05-02T02:21:48.941Z,94500.70
2019-05-02T02:24:25.100Z,94509.28
2019-05-02T02:26:53.183Z,94510.38
2019-05-02T02:29:22.147Z,94512.38
2019-05-02T02:31:51.062Z,94508.77
2019-05-02T02:34:28.689Z,94510.88
2019-05-02T02:36:51.663Z,94515.71
2019-05-02T02:39:21.737Z,94514.33
2019-05-02T02:41:54.195Z,94511.62
2019-05-02T02:44:33.776Z,94511.02
2019-05-02T02:47:03.945Z,94511.45
2019-05-02T02:49:33.255Z,94507.19
2019-05-02T02:52:04.707Z,94510.58
2019-05-02T02:54:36.514Z,94512.19
2019-05-02T02:57:05.131Z,94508.85
2019-05-02T02:59:34.113Z,94504.59
2019-05-02T03:02:09.740Z,94509.02
2019-05-02T03:04:34.404Z,94509.13
2019-05-02T03:07:03.400Z,94523.31
2019-05-02T03:09:33.684Z,94515.94
2019-05-02T03:12:22.838Z,94523.45
2019-05-02T03:14:56.465Z,94523.88
2019-05-02T03:17:28.842Z,94522.66
2019-05-02T03:20:00.958Z,94522.36
2019-05-02T03:22:28.555Z,94526.98
2019-05-02T03:24:59.263Z,94524.06
2019-05-02T03:27:29.981Z,94527.33
2019-05-02T03:29:59.418Z,94525.53
2019-05-02T03:32:34.254Z,94529.29
2019-05-02T03:34:59.815Z,94537.23
2019-05-02T03:37:28.806Z,94540.62
2019-05-02T03:40:00.362Z,94541.19
2019-05-02T03:42:27.982Z,94542.86
2019-05-02T03:45:04.084Z,94543.34
2019-05-02T03:47:27.918Z,94547.70
2019-05-02T03:49:57.163Z,94552.44
2019-05-02T03:52:25.790Z,94553.55
2019-05-02T03:54:54.622Z,94555.55
2019-05-02T03:57:32.170Z,94554.48
2019-05-02T03:59:55.035Z,94559.23
2019-05-02T04:02:24.274Z,94553.38
2019-05-02T04:04:59.884Z,94559.80
2019-05-02T04:07:24.526Z,94558.41
2019-05-02T04:09:54.000Z,94565.47
2019-05-02T04:12:22.637Z,94567.95
2019-05-02T04:14:55.525Z,94571.84
2019-05-02T04:17:28.636Z,94577.72
2019-05-02T04:19:54.044Z,94577.06
2019-05-02T04:22:23.361Z,94581.55
2019-05-02T04:24:56.805Z,94582.70
2019-05-02T04:27:27.696Z,94581.76
2019-05-02T04:29:53.495Z,94581.66
2019-05-02T04:32:23.238Z,94580.84
2019-05-02T04:34:55.630Z,94584.36
2019-05-02T04:37:24.586Z,94585.44
2019-05-02T04:39:57.877Z,94587.94
2019-05-02T04:42:24.758Z,94594.66
2019-05-02T04:45:16.244Z,94597.65
2019-05-02T04:47:24.310Z,94593.59
2019-05-02T04:49:54.752Z,94596.06
2019-05-02T04:52:24.884Z,94592.31
2019-05-02T04:55:08.305Z,94591.86
2019-05-02T04:57:36.769Z,94585.94
2019-05-02T05:00:06.454Z,94593.20
2019-05-02T05:02:35.903Z,94597.58
2019-05-02T05:05:00.535Z,94594.17
2019-05-02T05:07:39.913Z,94597.56
2019-05-02T05:10:03.354Z,94593.77
2019-05-02T05:12:37.995Z,94595.12
2019-05-02T05:15:04.613Z,94594.41
2019-05-02T05:17:34.290Z,94593.91
2019-05-02T05:20:13.708Z,94606.23
2019-05-02T05:22:44.328Z,94605.82
2019-05-02T05:25:17.802Z,94611.61
2019-05-02T05:27:45.111Z,94602.66
2019-05-02T05:30:15.611Z,94612.02
2019-05-02T05:32:47.793Z,94618.34
2019-05-02T05:35:18.554Z,94613.52
2019-05-02T05:37:52.788Z,94607.78
2019-05-02T05:40:22.572Z,94616.81
2019-05-02T05:42:52.829Z,94609.38
2019-05-02T05:45:21.480Z,94614.78
2019-05-02T05:47:52.481Z,94613.61
2019-05-02T05:50:24.226Z,94612.72
2019-05-02T05:52:59.285Z,94617.30
2019-05-02T05:55:28.162Z,94610.63
2019-05-02T05:58:01.382Z,94609.41
2019-05-02T06:00:28.881Z,94607.63
2019-05-02T06:03:10.318Z,94611.60
2019-05-02T06:05:40.451Z,94618.44
2019-05-02T06:08:03.684Z,94610.87
2019-05-02T06:10:39.051Z,94622.66
2019-05-02T06:13:11.020Z,94616.62
2019-05-02T06:15:39.135Z,94615.84
2019-05-02T06:18:09.913Z,94619.19
2019-05-02T06:20:39.538Z,94622.53
2019-05-02T06:23:08.410Z,94625.81
2019-05-02T06:25:38.078Z,94621.17
2019-05-02T06:28:08.128Z,94622.44
2019-05-02T06:30:36.823Z,94621.25
2019-05-02T06:33:05.758Z,94613.89
2019-05-02T06:35:36.404Z,94619.20
2019-05-02T06:38:05.170Z,94621.81
2019-05-02T06:40:34.236Z,94627.41
2019-05-02T06:43:04.160Z,94625.32
2019-05-02T06:45:37.597Z,94624.93
2019-05-02T06:48:04.798Z,94620.34
2019-05-02T06:50:38.669Z,94632.08
2019-05-02T06:53:09.634Z,94627.36
2019-05-02T06:55:38.537Z,94637.09
2019-05-02T06:58:08.152Z,94633.86
2019-05-02T07:00:56.078Z,94629.41
2019-05-02T07:03:11.493Z,94632.06
2019-05-02T07:05:40.966Z,94629.33
2019-05-02T07:08:12.115Z,94635.21
2019-05-02T07:10:44.849Z,94633.88
2019-05-02T07:13:14.979Z,94636.98
2019-05-02T07:15:48.222Z,94636.88
2019-05-02T07:18:27.152Z,94628.47
2019-05-02T07:20:56.491Z,94632.83
2019-05-02T07:23:25.215Z,94636.52
2019-05-02T07:25:53.876Z,94634.78
2019-05-02T07:28:24.124Z,94640.70
2019-05-02T07:30:54.821Z,94639.73
2019-05-02T07:33:23.600Z,94653.11
2019-05-02T07:35:55.202Z,94654.08
2019-05-02T07:38:25.777Z,94643.12
2019-05-02T07:40:54.339Z,94648.17
2019-05-02T07:43:23.174Z,94648.60
2019-05-02T07:45:53.242Z,94645.98
2019-05-02T07:48:22.913Z,94648.34
2019-05-02T07:50:52.415Z,94653.45
2019-05-02T07:53:21.665Z,94654.99
2019-05-02T07:55:51.200Z,94651.09
2019-05-02T07:58:20.111Z,94653.28
2019-05-02T08:00:48.680Z,94652.17
2019-05-02T08:03:18.147Z,94650.37
2019-05-02T08:05:47.727Z,94651.60
2019-05-02T08:08:18.780Z,94661.01
2019-05-02T08:10:47.842Z,94650.70
2019-05-02T08:13:17.566Z,94654.03
2019-05-02T08:15:50.752Z,94659.30
2019-05-02T08:18:17.187Z,94659.88
2019-05-02T08:20:46.217Z,94668.92
2019-05-02T08:23:15.351Z,94666.13
2019-05-02T08:25:45.450Z,94667.59
2019-05-02T08:28:18.007Z,94663.59
2019-05-02T08:30:48.607Z,94670.72
2019-05-02T08:33:18.303Z,94671.31
2019-05-02T08:35:47.320Z,94666.61
2019-05-02T08:38:17.887Z,94664.97
2019-05-02T08:40:49.624Z,94673.89
2019-05-02T08:43:18.950Z,94665.71
2019-05-02T08:45:47.894Z,94661.80
2019-05-02T08:48:17.382Z,94659.53
2019-05-02T08:50:48.066Z,94662.86
2019-05-02T08:53:19.723Z,94664.78
2019-05-02T08:55:47.387Z,94657.28
2019-05-02T08:58:16.427Z,94660.46
2019-05-02T09:00:47.363Z,94656.43
2019-05-02T09:03:17.176Z,94654.74
2019-05-02T09:05:47.479Z,94659.94
2019-05-02T09:08:17.253Z,94659.92
2019-05-02T09:10:47.592Z,94657.02
2019-05-02T09:13:25.959Z,94657.23
2019-05-02T09:15:51.195Z,94650.91
2019-05-02T09:18:22.262Z,94652.00
2019-05-02T09:20:56.199Z,94651.27
2019-05-02T09:23:22.876Z,94652.13
2019-05-02T09:25:52.883Z,94649.02
2019-05-02T09:28:25.409Z,94648.70
2019-05-02T09:30:57.415Z,94648.28
2019-05-02T09:33:23.709Z,94643.72
2019-05-02T09:35:52.393Z,94642.23
2019-05-02T09:38:22.217Z,94641.68
2019-05-02T09:40:54.498Z,94646.68
2019-05-02T09:43:22.864Z,94643.02
2019-05-02T09:45:52.132Z,94641.86
2019-05-02T09:48:22.870Z,94638.03
2019-05-02T09:50:52.804Z,94639.39
2019-05-02T09:53:25.516Z,94648.44
2019-05-02T09:55:57.157Z,94646.72
2019-05-02T09:58:23.999Z,94637.00
2019-05-02T10:00:57.318Z,94640.61
2019-05-02T10:03:26.019Z,94640.24
2019-05-02T10:05:54.734Z,94640.20
2019-05-02T10:08:23.554Z,94642.23
2019-05-02T10:10:52.713Z,94632.55
2019-05-02T10:13:22.842Z,94635.84
2019-05-02T10:15:52.758Z,94638.50
2019-05-02T10:18:28.619Z,94629.27
2019-05-02T10:20:52.529Z,94631.63
2019-05-02T10:23:23.341Z,94632.39
2019-05-02T10:25:52.172Z,94629.80
2019-05-02T10:28:22.869Z,94636.02
2019-05-02T10:30:56.481Z,94645.55
2019-05-02T10:33:27.927Z,94641.27
2019-05-02T10:35:55.429Z,94638.69
2019-05-02T10:38:24.076Z,94642.02
2019-05-02T10:40:54.775Z,94636.41
2019-05-02T10:43:23.125Z,94635.77
2019-05-02T10:45:56.418Z,94625.55
2019-05-02T10:48:28.182Z,94627.39
2019-05-02T10:50:55.809Z,94622.76
2019-05-02T10:53:24.492Z,94616.66
2019-05-02T10:55:53.145Z,94615.05
2019-05-02T10:58:26.177Z,94611.28
2019-05-02T11:00:52.446Z,94609.78
2019-05-02T11:03:22.881Z,94604.33
2019-05-02T11:06:05.520Z,94614.55
2019-05-02T11:08:36.905Z,94609.05
2019-05-02T11:11:05.971Z,94612.14
2019-05-02T11:13:43.978Z,94610.38
2019-05-02T11:16:17.085Z,94605.73
2019-05-02T11:18:56.599Z,94614.59
2019-05-02T11:21:25.366Z,94620.43
2019-05-02T11:23:54.061Z,94617.83
2019-05-02T11:26:25.054Z,94619.08
2019-05-02T11:28:53.236Z,94622.50
2019-05-02T11:31:22.002Z,94618.50
2019-05-02T11:33:52.715Z,94610.80
2019-05-02T11:36:22.317Z,94612.05
2019-05-02T11:39:00.433Z,94607.55
2019-05-02T11:41:22.463Z,94620.02
2019-05-02T11:43:54.062Z,94611.86
2019-05-02T11:46:22.092Z,94600.56
2019-05-02T11:48:56.283Z,94597.95
2019-05-02T11:51:22.727Z,94590.66
2019-05-02T11:53:52.741Z,94592.16
2019-05-02T11:56:22.205Z,94588.19
2019-05-02T11:58:52.854Z,94583.55
2019-05-02T12:01:35.004Z,94580.66
2019-05-02T12:03:56.926Z,94584.02
2019-05-02T12:06:25.569Z,94578.73
2019-05-02T12:08:54.213Z,94582.22
2019-05-02T12:11:23.174Z,94575.44
2019-05-02T12:13:56.806Z,94572.97
2019-05-02T12:16:23.013Z,94566.97
2019-05-02T12:18:53.765Z,94568.16
2019-05-02T12:21:22.934Z,94565.73
2019-05-02T12:23:52.759Z,94555.41
2019-05-02T12:26:22.184Z,94557.95
2019-05-02T12:28:52.630Z,94554.09
2019-05-02T12:31:26.759Z,94551.59
2019-05-02T12:33:56.354Z,94553.75
2019-05-02T12:36:25.024Z,94549.73
2019-05-02T12:38:53.764Z,94548.90
2019-05-02T12:41:25.099Z,94542.80
2019-05-02T12:43:52.769Z,94540.97
2019-05-02T12:46:22.194Z,94537.24
2019-05-02T12:48:51.912Z,94537.97
2019-05-02T12:51:22.590Z,94527.87
2019-05-02T12:53:52.786Z,94534.49
2019-05-02T12:56:22.862Z,94525.12
2019-05-02T12:58:52.916Z,94520.33
2019-05-02T13:01:22.145Z,94519.44
2019-05-02T13:04:04.763Z,94524.23
2019-05-02T13:06:33.377Z,94528.63
2019-05-02T13:09:03.109Z,94534.02
2019-05-02T13:11:42.234Z,94518.82
2019-05-02T13:14:16.959Z,94515.65
2019-05-02T13:16:38.117Z,94521.59
2019-05-02T13:19:06.947Z,94524.41
2019-05-02T13:21:43.097Z,94526.42
2019-05-02T13:24:16.198Z,94523.91
2019-05-02T13:26:42.991Z,94524.01
2019-05-02T13:29:11.851Z,94524.58
2019-05-02T13:31:45.012Z,94511.73
2019-05-02T13:34:22.074Z,94526.64
2019-05-02T13:36:52.146Z,94513.17
2019-05-02T13:39:22.730Z,94514.63
2019-05-02T13:41:52.202Z,94518.98
2019-05-02T13:44:23.121Z,94511.88
2019-05-02T13:46:53.567Z,94513.33
2019-05-02T13:49:22.503Z,94514.66
2019-05-02T13:51:52.101Z,94504.92
2019-05-02T13:54:22.088Z,94502.88
2019-05-02T13:56:52.697Z,94505.76
2019-05-02T13:59:22.335Z,94494.55
2019-05-02T14:01:52.707Z,94504.39
2019-05-02T14:04:23.300Z,94503.80
2019-05-02T14:06:52.976Z,94506.77
2019-05-02T14:09:32.490Z,94502.86
2019-05-02T14:12:08.628Z,94509.74
2019-05-02T14:14:37.335Z,94512.14
2019-05-02T14:17:06.179Z,94499.08
2019-05-02T14:19:34.828Z,94503.64
2019-05-02T14:22:04.433Z,94503.37
2019-05-02T14:24:33.093Z,94500.48
2019-05-02T14:27:02.694Z,94501.36
2019-05-02T14:29:32.978Z,94498.75
2019-05-02T14:32:02.731Z,94497.14
2019-05-02T14:34:42.623Z,94494.78
2019-05-02T14:37:11.879Z,94497.41
2019-05-02T14:39:41.666Z,94496.33
2019-05-02T14:42:15.289Z,94485.58
2019-05-02T14:45:04.136Z,94490.39
2019-05-02T14:47:18.182Z,94495.42
2019-05-02T14:49:42.946Z,94495.93
2019-05-02T14:52:12.632Z,94493.57
2019-05-02T14:54:43.871Z,94494.61
2019-05-02T14:57:17.095Z,94493.81
2019-05-02T14:59:43.724Z,94495.64
2019-05-02T15:02:14.117Z,94494.06
2019-05-02T15:04:44.358Z,94489.86
2019-05-02T15:07:13.166Z,94500.13
2019-05-02T15:09:41.899Z,94505.83
2019-05-02T15:12:15.854Z,94503.27
2019-05-02T15:14:43.133Z,94503.61
2019-05-02T15:17:12.121Z,94506.28
2019-05-02T15:19:42.724Z,94511.45
2019-05-02T15:22:12.415Z,94509.59
2019-05-02T15:24:42.395Z,94505.33
2019-05-02T15:27:17.030Z,94502.91
2019-05-02T15:29:42.087Z,94511.88
2019-05-02T15:32:18.428Z,94511.81
2019-05-02T15:35:05.116Z,94516.36
2019-05-02T15:37:35.865Z,94517.20
2019-05-02T15:42:37.326Z,94513.44
2019-05-02T15:45:07.219Z,94519.03
2019-05-02T15:47:37.179Z,94515.91
2019-05-02T15:50:07.206Z,94520.97
2019-05-02T15:52:37.473Z,94521.28
2019-05-02T15:55:07.468Z,94522.35
2019-05-02T15:57:43.083Z,94522.92
2019-05-02T16:00:09.995Z,94520.57
2019-05-02T16:02:38.645Z,94516.38
2019-05-02T16:05:08.695Z,94515.58
2019-05-02T16:07:38.005Z,94518.16
2019-05-02T16:10:10.614Z,94521.50
2019-05-02T16:12:41.800Z,94519.59
2019-05-02T16:15:18.106Z,94521.94
2019-05-02T16:17:42.310Z,94519.55
2019-05-02T16:20:13.650Z,94524.27
2019-05-02T16:22:46.223Z,94519.33
2019-05-02T16:25:13.024Z,94521.40
2019-05-02T16:27:45.721Z,94515.89
2019-05-02T16:30:17.494Z,94516.23
2019-05-02T16:32:52.256Z,94518.72
2019-05-02T16:35:22.674Z,94517.52
2019-05-02T16:37:55.687Z,94521.53
2019-05-02T16:40:29.601Z,94529.30
2019-05-02T16:42:52.584Z,94526.48
2019-05-02T16:45:22.250Z,94529.42
2019-05-02T16:47:58.545Z,94534.44
2019-05-02T16:50:22.889Z,94536.59
2019-05-02T16:52:53.137Z,94537.70
2019-05-02T16:55:26.361Z,94543.75
2019-05-02T16:57:56.575Z,94547.67
2019-05-02T17:00:24.809Z,94542.19
2019-05-02T17:02:53.422Z,94541.43
2019-05-02T17:05:22.221Z,94545.10
2019-05-02T17:08:02.242Z,94549.30
2019-05-02T17:10:35.031Z,94556.87
2019-05-02T17:13:03.069Z,94557.14
2019-05-02T17:15:36.466Z,94560.82
2019-05-02T17:18:12.600Z,94558.73
2019-05-02T17:20:36.833Z,94558.98
2019-05-02T17:23:07.488Z,94568.39
2019-05-02T17:25:35.841Z,94570.98
2019-05-02T17:28:08.459Z,94578.58
2019-05-02T17:30:39.161Z,94586.93
2019-05-02T17:33:07.070Z,94589.56
2019-05-02T17:35:36.135Z,94591.63
2019-05-02T17:38:05.412Z,94592.38
2019-05-02T17:40:34.468Z,94602.58
2019-05-02T17:43:06.896Z,94608.59
2019-05-02T17:45:38.602Z,94608.24
2019-05-02T17:48:09.896Z,94604.33
2019-05-02T17:50:38.963Z,94608.45
2019-05-02T17:53:08.824Z,94603.72
2019-05-02T17:55:40.365Z,94616.74
2019-05-02T17:58:16.383Z,94607.34
2019-05-02T18:00:47.375Z,94608.66
2019-05-02T18:03:17.881Z,94610.21
2019-05-02T18:05:46.606Z,94608.91
2019-05-02T18:08:17.753Z,94608.12
2019-05-02T18:10:50.597Z,94616.22
2019-05-02T18:13:17.390Z,94620.69
2019-05-02T18:15:49.189Z,94621.99
2019-05-02T18:18:18.632Z,94607.84
2019-05-02T18:20:47.643Z,94621.72
2019-05-02T18:23:18.683Z,94632.38
2019-05-02T18:25:47.743Z,94631.87
2019-05-02T18:28:22.323Z,94635.72
2019-05-02T18:30:46.927Z,94633.06
2019-05-02T18:33:17.200Z,94640.09
2019-05-02T18:35:47.017Z,94641.89
2019-05-02T18:38:20.937Z,94654.95
2019-05-02T18:40:46.549Z,94651.77
2019-05-02T18:43:15.305Z,94655.91
2019-05-02T18:45:44.455Z,94649.06
2019-05-02T18:48:13.417Z,94656.08
2019-05-02T18:50:47.614Z,94656.54
2019-05-02T18:53:18.479Z,94665.16
2019-05-02T18:55:46.035Z,94667.64
2019-05-02T18:58:14.984Z,94668.67
2019-05-02T19:00:45.212Z,94668.09
2019-05-02T19:03:17.177Z,94677.95
2019-05-02T19:05:46.678Z,94685.44
2019-05-02T19:08:28.199Z,94689.63
2019-05-02T19:11:02.478Z,94691.09
2019-05-02T19:13:17.230Z,94685.52
2019-05-02T19:15:49.145Z,94687.80
2019-05-02T19:18:19.589Z,94687.73
2019-05-02T19:20:57.493Z,94690.09
2019-05-02T19:23:27.247Z,94690.20
2019-05-02T19:25:55.990Z,94691.47
2019-05-02T19:28:42.880Z,94699.85
2019-05-02T19:31:11.690Z,94693.28
2019-05-02T19:33:42.708Z,94703.37
2019-05-02T19:36:10.812Z,94699.10
2019-05-02T19:38:39.440Z,94695.84
2019-05-02T19:41:09.339Z,94692.39
2019-05-02T19:43:40.500Z,94688.89
2019-05-02T19:46:11.994Z,94692.97
2019-05-02T19:48:42.905Z,94695.53
2019-05-02T19:51:18.727Z,94700.96
2019-05-02T19:53:42.619Z,94696.66
2019-05-02T19:56:12.827Z,94699.69
2019-05-02T19:58:46.654Z,94706.64
2019-05-02T20:01:17.488Z,94707.59
2019-05-02T20:03:45.412Z,94700.23
2019-05-02T20:06:15.853Z,94706.95
2019-05-02T20:08:44.535Z,94710.75
2019-05-02T20:11:14.183Z,94714.30
2019-05-02T20:13:43.227Z,94713.00
2019-05-02T20:16:23.478Z,94715.92
2019-05-02T20:18:52.647Z,94721.31
2019-05-02T20:21:27.972Z,94714.88
2019-05-02T20:23:57.644Z,94720.81
2019-05-02T20:26:26.297Z,94715.02
2019-05-02T20:28:57.984Z,94715.30
2019-05-02T20:31:26.784Z,94708.61
2019-05-02T20:33:55.845Z,94714.89
2019-05-02T20:36:24.831Z,94709.59
2019-05-02T20:38:54.326Z,94712.34
2019-05-02T20:41:23.378Z,94712.28
2019-05-02T20:43:52.032Z,94717.42
2019-05-02T20:46:21.839Z,94713.21
2019-05-02T20:48:52.591Z,94712.36
2019-05-02T20:51:22.786Z,94711.06
2019-05-02T20:53:52.600Z,94710.69
2019-05-02T20:56:23.039Z,94707.97
2019-05-02T20:58:52.646Z,94713.73
2019-05-02T21:01:23.378Z,94712.22
2019-05-02T21:03:52.356Z,94714.51
2019-05-02T21:06:37.025Z,94708.06
2019-05-02T21:09:02.384Z,94712.32
2019-05-02T21:11:32.428Z,94710.90
2019-05-02T21:14:01.790Z,94707.66
2019-05-02T21:16:34.831Z,94709.73
2019-05-02T21:19:03.630Z,94708.08
2019-05-02T21:21:33.906Z,94710.74
2019-05-02T21:24:03.900Z,94717.65
2019-05-02T21:26:33.403Z,94724.80
2019-05-02T21:29:03.041Z,94718.81
2019-05-02T21:31:32.036Z,94727.59
2019-05-02T21:34:02.548Z,94731.14
2019-05-02T21:36:32.001Z,94733.58
2019-05-02T21:39:02.790Z,94739.69
2019-05-02T21:41:33.022Z,94729.56
2019-05-02T21:44:02.553Z,94737.07
2019-05-02T21:46:32.029Z,94737.86
2019-05-02T21:49:01.117Z,94740.80
2019-05-02T21:51:35.402Z,94734.91
2019-05-02T21:54:12.208Z,94743.91
2019-05-02T21:56:49.138Z,94748.30
2019-05-02T21:59:19.623Z,94749.09
2019-05-02T22:01:53.630Z,94756.09
2019-05-02T22:04:22.946Z,94754.94
2019-05-02T22:06:52.704Z,94757.13
2019-05-02T22:09:23.051Z,94753.38
2019-05-02T22:11:52.677Z,94762.17
2019-05-02T22:14:22.540Z,94755.11
2019-05-02T22:16:53.161Z,94759.00
2019-05-02T22:19:23.284Z,94755.06
2019-05-02T22:21:52.599Z,94759.67
2019-05-02T22:24:21.529Z,94761.86
2019-05-02T22:26:50.226Z,94759.41
2019-05-02T22:29:18.863Z,94767.41
2019-05-02T22:31:47.935Z,94763.66
2019-05-02T22:34:17.545Z,94759.48
2019-05-02T22:36:47.101Z,94762.17
2019-05-02T22:39:19.000Z,94752.30
2019-05-02T22:41:48.666Z,94761.42
2019-05-02T22:44:18.291Z,94760.80
2019-05-02T22:46:47.283Z,94756.19
2019-05-02T22:49:16.951Z,94749.98
2019-05-02T22:51:46.555Z,94761.68
2019-05-02T22:54:26.963Z,94756.78
2019-05-02T22:56:46.761Z,94760.09
2019-05-02T22:59:15.399Z,94763.86
2019-05-02T23:01:44.371Z,94762.98
2019-05-02T23:04:13.007Z,94760.32
2019-05-02T23:06:44.254Z,94760.27
2019-05-02T23:09:13.512Z,94762.58
2019-05-02T23:11:42.749Z,94761.41
2019-05-02T23:14:11.992Z,94747.36
2019-05-02T23:16:42.709Z,94751.20
2019-05-02T23:19:12.349Z,94750.46
2019-05-02T23:21:42.371Z,94751.84
2019-05-02T23:24:14.667Z,94752.34
2019-05-02T23:26:51.811Z,94749.63
2019-05-02T23:29:22.462Z,94755.39
2019-05-02T23:31:51.873Z,94754.23
2019-05-02T23:34:23.348Z,94748.91
2019-05-02T23:36:52.224Z,94749.92
2019-05-02T23:39:21.485Z,94749.34
2019-05-02T23:41:52.491Z,94747.20
2019-05-02T23:44:22.853Z,94744.73
2019-05-02T23:46:52.532Z,94747.48
2019-05-02T23:49:22.177Z,94743.30
2019-05-02T23:51:51.560Z,94747.19
2019-05-02T23:54:22.069Z,94750.78
2019-05-02T23:56:51.745Z,94745.31
2019-05-02T23:59:22.234Z,94737.75
